createdAt,value
2018-08-03T00:01:02.781Z,11.70
2018-08-03T00:03:30.476Z,12.07
2018-08-03T00:05:58.148Z,11.60
2018-08-03T00:08:26.053Z,11.63
2018-08-03T00:10:53.734Z,12.10
2018-08-03T00:13:21.501Z,11.97
2018-08-03T00:15:49.189Z,11.90
2018-08-03T00:18:16.877Z,11.80
2018-08-03T00:20:44.696Z,11.60
2018-08-03T00:23:12.416Z,11.90
2018-08-03T00:25:40.113Z,11.90
2018-08-03T00:28:07.812Z,12.37
2018-08-03T00:30:35.579Z,12.37
2018-08-03T00:33:03.324Z,12.10
2018-08-03T00:35:31.040Z,12.13
2018-08-03T00:37:58.776Z,12.17
2018-08-03T00:40:26.499Z,11.60
2018-08-03T00:42:54.197Z,12.17
2018-08-03T00:45:21.952Z,11.60
2018-08-03T00:47:49.691Z,12.67
2018-08-03T00:50:17.389Z,12.10
2018-08-03T00:52:45.117Z,12.23
2018-08-03T00:55:13.004Z,11.90
2018-08-03T00:57:40.729Z,12.50
2018-08-03T01:00:08.468Z,11.60
2018-08-03T01:02:36.233Z,12.10
2018-08-03T01:05:04.116Z,11.70
2018-08-03T01:07:31.860Z,12.57
2018-08-03T01:09:59.575Z,12.23
2018-08-03T01:12:27.265Z,12.30
2018-08-03T01:14:54.983Z,12.40
2018-08-03T01:17:22.656Z,12.33
2018-08-03T01:19:50.384Z,12.73
2018-08-03T01:22:18.116Z,12.10
2018-08-03T01:24:45.805Z,12.67
2018-08-03T01:27:13.484Z,12.50
2018-08-03T01:29:41.239Z,12.47
2018-08-03T01:32:08.920Z,11.17
2018-08-03T01:34:36.647Z,12.10
2018-08-03T01:37:04.344Z,11.90
2018-08-03T01:39:32.049Z,12.80
2018-08-03T01:41:59.761Z,13.17
2018-08-03T01:44:27.449Z,12.67
2018-08-03T01:46:55.174Z,12.73
2018-08-03T21:32:22.025Z,11.13
2018-08-03T21:34:49.824Z,12.83
2018-08-03T21:37:17.518Z,17.90
2018-08-03T21:39:45.241Z,12.13
2018-08-03T21:42:12.921Z,9.33
2018-08-03T21:44:40.632Z,8.77
2018-08-03T21:47:08.349Z,9.07
2018-08-03T21:49:36.069Z,11.73
2018-08-03T21:52:03.820Z,9.70
2018-08-03T21:54:32.456Z,10.00
2018-08-03T21:57:00.149Z,11.57
2018-08-03T21:59:27.992Z,12.17
2018-08-03T22:01:55.716Z,11.60
2018-08-03T22:04:23.462Z,11.90
2018-08-03T22:06:51.244Z,11.20
2018-08-03T22:09:18.987Z,11.07
2018-08-03T22:11:46.712Z,10.67
2018-08-03T22:14:14.443Z,9.77
2018-08-03T22:16:42.157Z,11.37
2018-08-03T22:19:09.972Z,10.37
2018-08-03T22:21:37.684Z,13.50
2018-08-03T22:24:05.426Z,10.80
2018-08-03T22:26:33.115Z,11.50
2018-08-03T22:29:00.871Z,10.60
2018-08-03T22:31:28.586Z,11.90
2018-08-03T22:33:56.356Z,10.73
2018-08-03T22:36:24.943Z,9.77
2018-08-03T22:38:52.647Z,9.63
2018-08-03T22:41:20.336Z,10.10
2018-08-03T22:43:48.041Z,10.03
2018-08-03T22:46:15.723Z,10.17
2018-08-03T22:48:43.423Z,14.10
2018-08-03T22:51:11.115Z,12.50
2018-08-03T22:53:38.853Z,11.17
2018-08-03T22:56:06.839Z,9.77
2018-08-03T22:58:35.019Z,10.20
2018-08-03T23:01:02.736Z,10.30
2018-08-03T23:03:30.539Z,9.97
2018-08-03T23:05:58.221Z,9.93
2018-08-03T23:08:25.932Z,9.20
2018-08-03T23:10:53.606Z,9.17
2018-08-03T23:13:21.291Z,9.90
2018-08-03T23:15:49.014Z,9.90
2018-08-03T23:18:16.701Z,10.47
2018-08-03T23:20:44.415Z,9.93
2018-08-03T23:23:12.110Z,9.90
2018-08-03T23:25:39.816Z,9.80
2018-08-03T23:28:07.520Z,9.80
2018-08-03T23:30:35.217Z,9.23
2018-08-03T23:33:02.984Z,9.90
2018-08-03T23:35:30.872Z,10.57
2018-08-03T23:37:58.554Z,9.83
2018-08-03T23:40:26.247Z,9.43
2018-08-03T23:42:53.938Z,9.43
2018-08-03T23:45:21.632Z,9.30
2018-08-03T23:47:49.344Z,9.40
2018-08-03T23:50:18.060Z,9.10
2018-08-03T23:52:47.355Z,10.03
2018-08-03T23:55:16.504Z,9.37
2018-08-03T23:57:45.581Z,9.43
